sensor_id;sensor_type;location;lat;lon;timestamp;pressure;altitude;pressure_sealevel;temperature;humidity
59787;BME280;45672;51.612;5.536;2022-10-17T00:00:29;101411.44;;;13.38;100.00
59787;BME280;45672;51.612;5.536;2022-10-17T00:02:55;101410.75;;;13.36;100.00
59787;BME280;45672;51.612;5.536;2022-10-17T00:05:21;101413.44;;;13.36;100.00
59787;BME280;45672;51.612;5.536;2022-10-17T00:07:46;101419.63;;;13.36;100.00
59787;BME280;45672;51.612;5.536;2022-10-17T00:10:11;101412.28;;;13.38;100.00
59787;BME280;45672;51.612;5.536;2022-10-17T00:12:37;101414.78;;;13.40;100.00
59787;BME280;45672;51.612;5.536;2022-10-17T00:15:05;101409.28;;;13.41;100.00
59787;BME280;45672;51.612;5.536;2022-10-17T00:17:31;101408.63;;;13.39;100.00
59787;BME280;45672;51.612;5.536;2022-10-17T00:20:00;101405.47;;;13.44;100.00
59787;BME280;45672;51.612;5.536;2022-10-17T00:22:26;101408.13;;;13.44;100.00
59787;BME280;45672;51.612;5.536;2022-10-17T00:24:52;101402.78;;;13.44;100.00
59787;BME280;45672;51.612;5.536;2022-10-17T00:27:17;101400.66;;;13.48;100.00
59787;BME280;45672;51.612;5.536;2022-10-17T00:29:47;101394.78;;;13.44;100.00
59787;BME280;45672;51.612;5.536;2022-10-17T00:32:13;101395.75;;;13.43;100.00
59787;BME280;45672;51.612;5.536;2022-10-17T00:34:38;101393.94;;;13.43;100.00
59787;BME280;45672;51.612;5.536;2022-10-17T00:37:03;101393.94;;;13.43;100.00
59787;BME280;45672;51.612;5.536;2022-10-17T00:39:29;101394.44;;;13.47;100.00
59787;BME280;45672;51.612;5.536;2022-10-17T00:41:54;101389.25;;;13.45;100.00
59787;BME280;45672;51.612;5.536;2022-10-17T00:46:54;101383.09;;;13.45;100.00
59787;BME280;45672;51.612;5.536;2022-10-17T00:49:21;101381.41;;;13.44;100.00
59787;BME280;45672;51.612;5.536;2022-10-17T00:51:51;101384.91;;;13.44;100.00
59787;BME280;45672;51.612;5.536;2022-10-17T00:54:20;101392.25;;;13.42;100.00
59787;BME280;45672;51.612;5.536;2022-10-17T00:56:47;101384.91;;;13.44;100.00
59787;BME280;45672;51.612;5.536;2022-10-17T00:59:15;101390.13;;;13.46;100.00
59787;BME280;45672;51.612;5.536;2022-10-17T01:01:47;101391.09;;;13.45;100.00
59787;BME280;45672;51.612;5.536;2022-10-17T01:04:17;101393.78;;;13.45;100.00
59787;BME280;45672;51.612;5.536;2022-10-17T01:06:43;101390.13;;;13.46;100.00
59787;BME280;45672;51.612;5.536;2022-10-17T01:09:08;101388.44;;;13.45;100.00
59787;BME280;45672;51.612;5.536;2022-10-17T01:11:39;101388.44;;;13.45;100.00
59787;BME280;45672;51.612;5.536;2022-10-17T01:14:29;101382.91;;;13.47;100.00
59787;BME280;45672;51.612;5.536;2022-10-17T01:17:10;101383.75;;;13.47;100.00
59787;BME280;45672;51.612;5.536;2022-10-17T01:22:53;101374.75;;;13.48;100.00
59787;BME280;45672;51.612;5.536;2022-10-17T01:28:09;101378.94;;;13.51;100.00
59787;BME280;45672;51.612;5.536;2022-10-17T01:31:14;101380.13;;;13.56;100.00
59787;BME280;45672;51.612;5.536;2022-10-17T01:33:48;101380.63;;;13.60;100.00
59787;BME280;45672;51.612;5.536;2022-10-17T01:39:16;101377.16;;;13.68;100.00
59787;BME280;45672;51.612;5.536;2022-10-17T01:42:01;101369.47;;;13.73;100.00
59787;BME280;45672;51.612;5.536;2022-10-17T01:45:05;101371.66;;;13.77;100.00
59787;BME280;45672;51.612;5.536;2022-10-17T01:47:33;101368.31;;;13.84;100.00
59787;BME280;45672;51.612;5.536;2022-10-17T01:50:06;101367.00;;;13.88;100.00
59787;BME280;45672;51.612;5.536;2022-10-17T01:52:43;101361.31;;;13.91;100.00
59787;BME280;45672;51.612;5.536;2022-10-17T01:55:14;101361.69;;;13.96;100.00
59787;BME280;45672;51.612;5.536;2022-10-17T01:57:54;101358.66;;;13.99;100.00
59787;BME280;45672;51.612;5.536;2022-10-17T02:00:23;101362.69;;;14.03;100.00
59787;BME280;45672;51.612;5.536;2022-10-17T02:02:52;101367.19;;;14.03;100.00
59787;BME280;45672;51.612;5.536;2022-10-17T02:05:23;101369.84;;;14.03;100.00
59787;BME280;45672;51.612;5.536;2022-10-17T02:07:49;101366.19;;;14.04;100.00
59787;BME280;45672;51.612;5.536;2022-10-17T02:10:20;101376.88;;;14.04;100.00
59787;BME280;45672;51.612;5.536;2022-10-17T02:16:28;101363.03;;;14.00;100.00
59787;BME280;45672;51.612;5.536;2022-10-17T02:19:14;101356.97;;;13.98;100.00
59787;BME280;45672;51.612;5.536;2022-10-17T02:26:54;101360.00;;;13.95;100.00
59787;BME280;45672;51.612;5.536;2022-10-17T02:29:29;101350.13;;;13.95;100.00
59787;BME280;45672;51.612;5.536;2022-10-17T02:32:07;101358.31;;;13.94;100.00
59787;BME280;45672;51.612;5.536;2022-10-17T02:34:42;101357.66;;;13.92;100.00
59787;BME280;45672;51.612;5.536;2022-10-17T02:37:12;101355.16;;;13.90;100.00
59787;BME280;45672;51.612;5.536;2022-10-17T02:39:41;101361.16;;;13.92;100.00
59787;BME280;45672;51.612;5.536;2022-10-17T02:42:10;101361.16;;;13.92;100.00
59787;BME280;45672;51.612;5.536;2022-10-17T02:44:37;101354.13;;;13.91;100.00
59787;BME280;45672;51.612;5.536;2022-10-17T02:47:27;101352.31;;;13.92;100.00
59787;BME280;45672;51.612;5.536;2022-10-17T02:49:56;101355.31;;;13.89;100.00
59787;BME280;45672;51.612;5.536;2022-10-17T02:52:36;101359.63;;;13.90;100.00
59787;BME280;45672;51.612;5.536;2022-10-17T02:57:35;101352.81;;;13.87;100.00
59787;BME280;45672;51.612;5.536;2022-10-17T03:00:03;101357.28;;;13.87;100.00
59787;BME280;45672;51.612;5.536;2022-10-17T03:02:41;101346.94;;;13.84;100.00
59787;BME280;45672;51.612;5.536;2022-10-17T03:05:08;101356.47;;;13.86;100.00
59787;BME280;45672;51.612;5.536;2022-10-17T03:07:34;101356.31;;;13.88;100.00
59787;BME280;45672;51.612;5.536;2022-10-17T03:09:59;101357.81;;;13.90;100.00
59787;BME280;45672;51.612;5.536;2022-10-17T03:12:25;101349.44;;;13.85;100.00
59787;BME280;45672;51.612;5.536;2022-10-17T03:14:50;101349.09;;;13.88;100.00
59787;BME280;45672;51.612;5.536;2022-10-17T03:17:15;101349.63;;;13.92;100.00
59787;BME280;45672;51.612;5.536;2022-10-17T03:19:40;101355.97;;;13.91;100.00
59787;BME280;45672;51.612;5.536;2022-10-17T03:22:06;101351.63;;;13.90;100.00
59787;BME280;45672;51.612;5.536;2022-10-17T03:24:31;101354.63;;;13.95;100.00
59787;BME280;45672;51.612;5.536;2022-10-17T03:26:56;101351.47;;;14.00;100.00
59787;BME280;45672;51.612;5.536;2022-10-17T03:29:22;101351.97;;;14.03;100.00
59787;BME280;45672;51.612;5.536;2022-10-17T03:31:47;101353.34;;;14.07;100.00
59787;BME280;45672;51.612;5.536;2022-10-17T03:34:12;101352.81;;;14.12;100.00
59787;BME280;45672;51.612;5.536;2022-10-17T03:36:40;101351.16;;;14.19;100.00
59787;BME280;45672;51.612;5.536;2022-10-17T03:39:06;101353.50;;;14.22;100.00
59787;BME280;45672;51.612;5.536;2022-10-17T03:41:31;101361.00;;;14.27;100.00
59787;BME280;45672;51.612;5.536;2022-10-17T03:43:56;101352.84;;;14.28;100.00
59787;BME280;45672;51.612;5.536;2022-10-17T03:46:21;101355.53;;;14.28;100.00
59787;BME280;45672;51.612;5.536;2022-10-17T03:48:47;101355.53;;;14.28;100.00
59787;BME280;45672;51.612;5.536;2022-10-17T03:51:12;101355.53;;;14.28;100.00
59787;BME280;45672;51.612;5.536;2022-10-17T03:53:37;101348.16;;;14.30;100.00
59787;BME280;45672;51.612;5.536;2022-10-17T03:56:13;101343.78;;;14.29;100.00
59787;BME280;45672;51.612;5.536;2022-10-17T03:58:38;101342.16;;;14.28;100.00
59787;BME280;45672;51.612;5.536;2022-10-17T04:01:05;101342.16;;;14.28;100.00
59787;BME280;45672;51.612;5.536;2022-10-17T04:03:31;101356.53;;;14.27;100.00
59787;BME280;45672;51.612;5.536;2022-10-17T04:06:01;101348.31;;;14.29;100.00
59787;BME280;45672;51.612;5.536;2022-10-17T04:08:26;101357.88;;;14.31;100.00
59787;BME280;45672;51.612;5.536;2022-10-17T04:10:52;101360.53;;;14.31;100.00
59787;BME280;45672;51.612;5.536;2022-10-17T04:13:21;101358.69;;;14.32;100.00
59787;BME280;45672;51.612;5.536;2022-10-17T04:16:01;101365.56;;;14.35;100.00
59787;BME280;45672;51.612;5.536;2022-10-17T04:18:27;101358.88;;;14.39;100.00
59787;BME280;45672;51.612;5.536;2022-10-17T04:20:52;101364.69;;;14.42;100.00
59787;BME280;45672;51.612;5.536;2022-10-17T04:23:18;101367.72;;;14.47;100.00
59787;BME280;45672;51.612;5.536;2022-10-17T04:25:44;101374.25;;;14.53;100.00
59787;BME280;45672;51.612;5.536;2022-10-17T04:28:10;101375.25;;;14.60;100.00
59787;BME280;45672;51.612;5.536;2022-10-17T04:30:35;101372.25;;;14.72;100.00
59787;BME280;45672;51.612;5.536;2022-10-17T04:33:00;101365.72;;;14.74;100.00
59787;BME280;45672;51.612;5.536;2022-10-17T04:35:25;101377.25;;;14.83;100.00
59787;BME280;45672;51.612;5.536;2022-10-17T04:37:51;101384.13;;;14.86;100.00
59787;BME280;45672;51.612;5.536;2022-10-17T04:40:16;101376.41;;;14.91;100.00
59787;BME280;45672;51.612;5.536;2022-10-17T04:42:42;101383.25;;;14.93;100.00
59787;BME280;45672;51.612;5.536;2022-10-17T04:45:07;101384.94;;;14.94;100.00
59787;BME280;45672;51.612;5.536;2022-10-17T04:47:33;101388.63;;;14.93;100.00
59787;BME280;45672;51.612;5.536;2022-10-17T04:49:58;101392.31;;;14.92;100.00
59787;BME280;45672;51.612;5.536;2022-10-17T04:52:23;101402.53;;;14.89;100.00
59787;BME280;45672;51.612;5.536;2022-10-17T04:54:50;101404.22;;;14.90;100.00
59787;BME280;45672;51.612;5.536;2022-10-17T04:57:15;101405.75;;;14.84;100.00
59787;BME280;45672;51.612;5.536;2022-10-17T04:59:41;101403.38;;;14.81;100.00
59787;BME280;45672;51.612;5.536;2022-10-17T05:02:06;101412.59;;;14.78;100.00
59787;BME280;45672;51.612;5.536;2022-10-17T05:04:32;101416.63;;;14.74;100.00
59787;BME280;45672;51.612;5.536;2022-10-17T05:06:57;101420.13;;;14.75;100.00
59787;BME280;45672;51.612;5.536;2022-10-17T05:09:22;101421.81;;;14.76;100.00
59787;BME280;45672;51.612;5.536;2022-10-17T05:11:47;101415.28;;;14.78;100.00
59787;BME280;45672;51.612;5.536;2022-10-17T05:14:22;101419.78;;;14.78;100.00
59787;BME280;45672;51.612;5.536;2022-10-17T05:16:48;101417.09;;;14.78;100.00
59787;BME280;45672;51.612;5.536;2022-10-17T05:19:13;101411.91;;;14.76;100.00
59787;BME280;45672;51.612;5.536;2022-10-17T05:21:38;101409.06;;;14.78;100.00
59787;BME280;45672;51.612;5.536;2022-10-17T05:24:08;101421.81;;;14.76;100.00
59787;BME280;45672;51.612;5.536;2022-10-17T05:26:35;101416.28;;;14.77;100.00
59787;BME280;45672;51.612;5.536;2022-10-17T05:29:00;101421.00;;;14.75;100.00
59787;BME280;45672;51.612;5.536;2022-10-17T05:31:27;101432.53;;;14.76;100.00
59787;BME280;45672;51.612;5.536;2022-10-17T05:33:52;101431.38;;;14.78;100.00
59787;BME280;45672;51.612;5.536;2022-10-17T05:36:18;101429.34;;;14.80;100.00
59787;BME280;45672;51.612;5.536;2022-10-17T05:38:43;101433.69;;;14.81;100.00
59787;BME280;45672;51.612;5.536;2022-10-17T05:41:09;101436.19;;;14.83;100.00
59787;BME280;45672;51.612;5.536;2022-10-17T05:43:34;101444.06;;;14.85;100.00
59787;BME280;45672;51.612;5.536;2022-10-17T05:46:04;101436.84;;;14.85;100.00
59787;BME280;45672;51.612;5.536;2022-10-17T05:48:29;101432.53;;;14.84;100.00
59787;BME280;45672;51.612;5.536;2022-10-17T05:50:59;101438.53;;;14.86;100.00
59787;BME280;45672;51.612;5.536;2022-10-17T05:53:25;101441.91;;;14.88;100.00
59787;BME280;45672;51.612;5.536;2022-10-17T05:56:01;101448.56;;;14.92;100.00
59787;BME280;45672;51.612;5.536;2022-10-17T05:58:27;101446.75;;;14.93;100.00
59787;BME280;45672;51.612;5.536;2022-10-17T06:01:04;101456.63;;;14.92;100.00
59787;BME280;45672;51.612;5.536;2022-10-17T06:03:30;101450.59;;;14.98;100.00
59787;BME280;45672;51.612;5.536;2022-10-17T06:06:02;101449.59;;;14.99;100.00
59787;BME280;45672;51.612;5.536;2022-10-17T06:08:27;101456.25;;;15.04;100.00
59787;BME280;45672;51.612;5.536;2022-10-17T06:10:52;101445.53;;;15.04;100.00
59787;BME280;45672;51.612;5.536;2022-10-17T06:13:18;101446.41;;;15.04;100.00
59787;BME280;45672;51.612;5.536;2022-10-17T06:15:44;101444.56;;;15.05;100.00
59787;BME280;45672;51.612;5.536;2022-10-17T06:18:09;101446.22;;;15.06;100.00
59787;BME280;45672;51.612;5.536;2022-10-17T06:20:35;101462.13;;;15.07;100.00
59787;BME280;45672;51.612;5.536;2022-10-17T06:23:01;101459.13;;;15.10;100.00
59787;BME280;45672;51.612;5.536;2022-10-17T06:25:26;101451.94;;;15.11;100.00
59787;BME280;45672;51.612;5.536;2022-10-17T06:27:53;101457.28;;;15.11;100.00
59787;BME280;45672;51.612;5.536;2022-10-17T06:30:18;101458.94;;;15.12;100.00
59787;BME280;45672;51.612;5.536;2022-10-17T06:32:43;101455.25;;;15.13;100.00
59787;BME280;45672;51.612;5.536;2022-10-17T06:35:09;101450.72;;;15.13;100.00
59787;BME280;45672;51.612;5.536;2022-10-17T06:37:34;101455.91;;;15.15;100.00
59787;BME280;45672;51.612;5.536;2022-10-17T06:40:00;101450.25;;;15.18;100.00
59787;BME280;45672;51.612;5.536;2022-10-17T06:42:26;101449.03;;;15.21;100.00
59787;BME280;45672;51.612;5.536;2022-10-17T06:44:52;101451.53;;;15.22;100.00
59787;BME280;45672;51.612;5.536;2022-10-17T06:47:17;101460.91;;;15.26;100.00
59787;BME280;45672;51.612;5.536;2022-10-17T06:49:42;101456.25;;;15.28;100.00
59787;BME280;45672;51.612;5.536;2022-10-17T06:52:09;101470.13;;;15.32;100.00
59787;BME280;45672;51.612;5.536;2022-10-17T06:54:34;101472.63;;;15.42;100.00
59787;BME280;45672;51.612;5.536;2022-10-17T06:56:59;101478.16;;;15.48;100.00
59787;BME280;45672;51.612;5.536;2022-10-17T06:59:25;101493.03;;;15.59;100.00
59787;BME280;45672;51.612;5.536;2022-10-17T07:01:50;101490.47;;;15.66;100.00
59787;BME280;45672;51.612;5.536;2022-10-17T07:04:15;101484.28;;;15.74;100.00
59787;BME280;45672;51.612;5.536;2022-10-17T07:06:41;101476.38;;;15.80;100.00
59787;BME280;45672;51.612;5.536;2022-10-17T07:09:06;101477.19;;;15.89;100.00
59787;BME280;45672;51.612;5.536;2022-10-17T07:11:32;101479.00;;;15.97;100.00
59787;BME280;45672;51.612;5.536;2022-10-17T07:13:59;101478.66;;;16.00;100.00
59787;BME280;45672;51.612;5.536;2022-10-17T07:16:24;101477.47;;;16.02;100.00
59787;BME280;45672;51.612;5.536;2022-10-17T07:18:50;101493.56;;;16.02;100.00
59787;BME280;45672;51.612;5.536;2022-10-17T07:21:16;101491.06;;;16.01;100.00
59787;BME280;45672;51.612;5.536;2022-10-17T07:23:42;101491.72;;;16.03;100.00
59787;BME280;45672;51.612;5.536;2022-10-17T07:26:11;101490.53;;;16.06;100.00
59787;BME280;45672;51.612;5.536;2022-10-17T07:28:40;101492.84;;;16.09;100.00
59787;BME280;45672;51.612;5.536;2022-10-17T07:31:09;101499.91;;;16.10;100.00
59787;BME280;45672;51.612;5.536;2022-10-17T07:33:35;101508.63;;;16.12;100.00
59787;BME280;45672;51.612;5.536;2022-10-17T07:36:01;101512.16;;;16.12;100.00
59787;BME280;45672;51.612;5.536;2022-10-17T07:38:27;101517.50;;;16.12;100.00
59787;BME280;45672;51.612;5.536;2022-10-17T07:40:57;101527.44;;;16.12;100.00
59787;BME280;45672;51.612;5.536;2022-10-17T07:43:23;101552.59;;;16.11;100.00
59787;BME280;45672;51.612;5.536;2022-10-17T07:45:49;101577.59;;;16.11;100.00
59787;BME280;45672;51.612;5.536;2022-10-17T07:48:14;101595.38;;;16.12;100.00
59787;BME280;45672;51.612;5.536;2022-10-17T07:50:40;101610.31;;;16.15;100.00
59787;BME280;45672;51.612;5.536;2022-10-17T07:53:05;101620.53;;;16.11;100.00
59787;BME280;45672;51.612;5.536;2022-10-17T07:55:30;101634.47;;;16.07;100.00
59787;BME280;45672;51.612;5.536;2022-10-17T07:57:56;101648.44;;;16.02;100.00
59787;BME280;45672;51.612;5.536;2022-10-17T08:00:22;101652.63;;;15.96;100.00
59787;BME280;45672;51.612;5.536;2022-10-17T08:02:47;101643.53;;;15.97;100.00
59787;BME280;45672;51.612;5.536;2022-10-17T08:05:13;101619.38;;;15.97;100.00
59787;BME280;45672;51.612;5.536;2022-10-17T08:07:38;101644.59;;;15.96;100.00
59787;BME280;45672;51.612;5.536;2022-10-17T08:10:05;101636.53;;;15.96;100.00
59787;BME280;45672;51.612;5.536;2022-10-17T08:12:30;101645.22;;;15.98;100.00
59787;BME280;45672;51.612;5.536;2022-10-17T08:14:58;101635.19;;;16.00;100.00
59787;BME280;45672;51.612;5.536;2022-10-17T08:17:24;101636.00;;;16.01;100.00
59787;BME280;45672;51.612;5.536;2022-10-17T08:19:49;101634.16;;;16.01;100.00
59787;BME280;45672;51.612;5.536;2022-10-17T08:22:14;101642.88;;;16.03;100.00
59787;BME280;45672;51.612;5.536;2022-10-17T08:24:40;101650.94;;;16.03;100.00
59787;BME280;45672;51.612;5.536;2022-10-17T08:27:06;101680.63;;;16.02;100.00
59787;BME280;45672;51.612;5.536;2022-10-17T08:29:36;101692.19;;;16.02;100.00
59787;BME280;45672;51.612;5.536;2022-10-17T08:32:02;101727.75;;;16.05;100.00
59787;BME280;45672;51.612;5.536;2022-10-17T08:34:27;101722.25;;;16.06;100.00
59787;BME280;45672;51.612;5.536;2022-10-17T08:36:53;101700.09;;;16.04;100.00
59787;BME280;45672;51.612;5.536;2022-10-17T08:39:18;101701.94;;;16.03;100.00
59787;BME280;45672;51.612;5.536;2022-10-17T08:41:56;101703.63;;;15.96;100.00
59787;BME280;45672;51.612;5.536;2022-10-17T08:44:36;101692.22;;;15.86;100.00
59787;BME280;45672;51.612;5.536;2022-10-17T08:47:09;101691.72;;;15.82;100.00
59787;BME280;45672;51.612;5.536;2022-10-17T08:49:43;101690.22;;;15.80;100.00
59787;BME280;45672;51.612;5.536;2022-10-17T08:55:13;101702.25;;;15.76;100.00
59787;BME280;45672;51.612;5.536;2022-10-17T08:57:39;101704.94;;;15.76;100.00
59787;BME280;45672;51.612;5.536;2022-10-17T09:00:16;101698.91;;;15.74;100.00
59787;BME280;45672;51.612;5.536;2022-10-17T09:05:42;101700.91;;;15.72;100.00
59787;BME280;45672;51.612;5.536;2022-10-17T09:08:35;101694.53;;;15.73;100.00
59787;BME280;45672;51.612;5.536;2022-10-17T09:14:21;101702.59;;;15.73;100.00
59787;BME280;45672;51.612;5.536;2022-10-17T09:16:49;101718.53;;;15.74;100.00
59787;BME280;45672;51.612;5.536;2022-10-17T09:19:22;101728.44;;;15.74;100.00
59787;BME280;45672;51.612;5.536;2022-10-17T09:21:52;101742.00;;;15.72;100.00
59787;BME280;45672;51.612;5.536;2022-10-17T09:29:48;101769.84;;;15.71;100.00
59787;BME280;45672;51.612;5.536;2022-10-17T09:32:18;101768.16;;;15.70;100.00
59787;BME280;45672;51.612;5.536;2022-10-17T09:34:44;101747.56;;;15.71;100.00
59787;BME280;45672;51.612;5.536;2022-10-17T09:37:12;101707.31;;;15.71;100.00
59787;BME280;45672;51.612;5.536;2022-10-17T09:39:38;101678.28;;;15.74;100.00
59787;BME280;45672;51.612;5.536;2022-10-17T09:42:05;101664.53;;;15.77;100.00
59787;BME280;45672;51.612;5.536;2022-10-17T09:45:03;101667.91;;;15.79;100.00
59787;BME280;45672;51.612;5.536;2022-10-17T09:47:54;101690.56;;;15.85;100.00
59787;BME280;45672;51.612;5.536;2022-10-17T09:50:25;101706.16;;;15.90;100.00
59787;BME280;45672;51.612;5.536;2022-10-17T09:52:52;101718.22;;;15.85;100.00
59787;BME280;45672;51.612;5.536;2022-10-17T09:55:28;101744.22;;;15.85;100.00
59787;BME280;45672;51.612;5.536;2022-10-17T09:58:06;101757.81;;;15.83;100.00
59787;BME280;45672;51.612;5.536;2022-10-17T10:00:35;101733.84;;;15.82;100.00
59787;BME280;45672;51.612;5.536;2022-10-17T10:05:33;101732.81;;;15.91;100.00
59787;BME280;45672;51.612;5.536;2022-10-17T10:08:02;101716.88;;;15.98;100.00
59787;BME280;45672;51.612;5.536;2022-10-17T10:10:29;101712.16;;;16.00;100.00
59787;BME280;45672;51.612;5.536;2022-10-17T10:13:14;101709.31;;;16.01;100.00
59787;BME280;45672;51.612;5.536;2022-10-17T10:15:41;101709.47;;;16.08;100.00
59787;BME280;45672;51.612;5.536;2022-10-17T10:21:19;101744.88;;;16.12;100.00
59787;BME280;45672;51.612;5.536;2022-10-17T10:24:09;101749.09;;;16.06;100.00
59787;BME280;45672;51.612;5.536;2022-10-17T10:26:43;101753.44;;;16.07;100.00
59787;BME280;45672;51.612;5.536;2022-10-17T10:29:29;101753.59;;;16.06;100.00
59787;BME280;45672;51.612;5.536;2022-10-17T10:34:31;101770.88;;;16.11;100.00
59787;BME280;45672;51.612;5.536;2022-10-17T10:37:04;101781.78;;;16.10;100.00
59787;BME280;45672;51.612;5.536;2022-10-17T10:39:50;101782.78;;;16.09;100.00
59787;BME280;45672;51.612;5.536;2022-10-17T10:44:48;101774.06;;;16.07;100.00
59787;BME280;45672;51.612;5.536;2022-10-17T10:49:42;101795.72;;;16.13;100.00
59787;BME280;45672;51.612;5.536;2022-10-17T10:52:12;101815.69;;;16.11;100.00
59787;BME280;45672;51.612;5.536;2022-10-17T10:54:44;101814.84;;;16.10;100.00
59787;BME280;45672;51.612;5.536;2022-10-17T10:57:17;101822.06;;;16.10;100.00
59787;BME280;45672;51.612;5.536;2022-10-17T10:59:59;101819.03;;;16.05;100.00
59787;BME280;45672;51.612;5.536;2022-10-17T11:02:39;101822.06;;;16.01;100.00
59787;BME280;45672;51.612;5.536;2022-10-17T11:05:19;101825.06;;;15.98;100.00
59787;BME280;45672;51.612;5.536;2022-10-17T11:07:52;101826.75;;;15.99;100.00
59787;BME280;45672;51.612;5.536;2022-10-17T11:10:52;101830.97;;;16.02;100.00
59787;BME280;45672;51.612;5.536;2022-10-17T11:13:27;101829.94;;;16.03;100.00
59787;BME280;45672;51.612;5.536;2022-10-17T11:18:48;101835.81;;;16.07;100.00
59787;BME280;45672;51.612;5.536;2022-10-17T11:21:19;101844.53;;;16.09;100.00
59787;BME280;45672;51.612;5.536;2022-10-17T11:23:55;101850.94;;;16.08;100.00
59787;BME280;45672;51.612;5.536;2022-10-17T11:26:26;101849.06;;;16.08;100.00
59787;BME280;45672;51.612;5.536;2022-10-17T11:28:53;101866.53;;;16.12;100.00
59787;BME280;45672;51.612;5.536;2022-10-17T11:31:20;101859.66;;;16.10;100.00
59787;BME280;45672;51.612;5.536;2022-10-17T11:33:49;101871.06;;;16.12;100.00
59787;BME280;45672;51.612;5.536;2022-10-17T11:36:18;101868.41;;;16.12;100.00
59787;BME280;45672;51.612;5.536;2022-10-17T11:38:53;101876.44;;;16.12;100.00
59787;BME280;45672;51.612;5.536;2022-10-17T11:46:58;101879.44;;;16.09;100.00
59787;BME280;45672;51.612;5.536;2022-10-17T11:49:30;101880.28;;;16.09;100.00
59787;BME280;45672;51.612;5.536;2022-10-17T11:52:21;101886.50;;;16.10;100.00
59787;BME280;45672;51.612;5.536;2022-10-17T11:54:52;101877.09;;;16.14;100.00
59787;BME280;45672;51.612;5.536;2022-10-17T11:59:57;101887.84;;;16.14;100.00
59787;BME280;45672;51.612;5.536;2022-10-17T12:02:36;101886.84;;;16.15;100.00
59787;BME280;45672;51.612;5.536;2022-10-17T12:05:24;101896.56;;;16.16;100.00
59787;BME280;45672;51.612;5.536;2022-10-17T12:08:04;101894.03;;;16.14;100.00
59787;BME280;45672;51.612;5.536;2022-10-17T12:10:44;101897.59;;;16.15;100.00
59787;BME280;45672;51.612;5.536;2022-10-17T12:15:51;101896.91;;;16.21;100.00
59787;BME280;45672;51.612;5.536;2022-10-17T12:18:17;101894.88;;;16.23;100.00
59787;BME280;45672;51.612;5.536;2022-10-17T12:20:42;101897.25;;;16.26;100.00
59787;BME280;45672;51.612;5.536;2022-10-17T12:23:24;101890.22;;;16.33;100.00
59787;BME280;45672;51.612;5.536;2022-10-17T12:25:56;101899.78;;;16.36;100.00
59787;BME280;45672;51.612;5.536;2022-10-17T12:28:27;101890.88;;;16.35;100.00
59787;BME280;45672;51.612;5.536;2022-10-17T12:30:57;101901.78;;;16.34;100.00
59787;BME280;45672;51.612;5.536;2022-10-17T12:33:32;101896.59;;;16.32;100.00
59787;BME280;45672;51.612;5.536;2022-10-17T12:38:44;101887.69;;;16.32;100.00
59787;BME280;45672;51.612;5.536;2022-10-17T12:41:10;101890.88;;;16.35;100.00
59787;BME280;45672;51.612;5.536;2022-10-17T12:43:43;101897.75;;;16.38;100.00
59787;BME280;45672;51.612;5.536;2022-10-17T12:46:09;101901.97;;;16.41;100.00
59787;BME280;45672;51.612;5.536;2022-10-17T12:56:11;101901.13;;;16.48;100.00
59787;BME280;45672;51.612;5.536;2022-10-17T12:58:43;101920.09;;;16.55;100.00
59787;BME280;45672;51.612;5.536;2022-10-17T13:01:16;101917.56;;;16.53;100.00
59787;BME280;45672;51.612;5.536;2022-10-17T13:03:46;101919.75;;;16.58;100.00
59787;BME280;45672;51.612;5.536;2022-10-17T13:06:22;101932.34;;;16.58;100.00
59787;BME280;45672;51.612;5.536;2022-10-17T13:09:02;101937.72;;;16.58;100.00
59787;BME280;45672;51.612;5.536;2022-10-17T13:11:31;101944.75;;;16.59;100.00
59787;BME280;45672;51.612;5.536;2022-10-17T13:14:00;101947.78;;;16.55;100.00
59787;BME280;45672;51.612;5.536;2022-10-17T13:18:55;101949.63;;;16.47;100.00
59787;BME280;45672;51.612;5.536;2022-10-17T13:21:20;101953.00;;;16.49;100.00
59787;BME280;45672;51.612;5.536;2022-10-17T13:23:46;101950.31;;;16.49;100.00
59787;BME280;45672;51.612;5.536;2022-10-17T13:26:17;101953.69;;;16.51;100.00
59787;BME280;45672;51.612;5.536;2022-10-17T13:28:45;101958.72;;;16.54;100.00
59787;BME280;45672;51.612;5.536;2022-10-17T13:31:35;101957.72;;;16.55;100.00
59787;BME280;45672;51.612;5.536;2022-10-17T13:34:04;101963.44;;;16.60;100.00
59787;BME280;45672;51.612;5.536;2022-10-17T13:36:30;101967.59;;;16.63;100.00
59787;BME280;45672;51.612;5.536;2022-10-17T13:38:58;101968.63;;;16.70;100.00
59787;BME280;45672;51.612;5.536;2022-10-17T13:41:27;101962.06;;;16.72;100.00
59787;BME280;45672;51.612;5.536;2022-10-17T13:43:53;101968.13;;;16.75;100.00
59787;BME280;45672;51.612;5.536;2022-10-17T13:46:40;101963.75;;;16.74;100.00
59787;BME280;45672;51.612;5.536;2022-10-17T13:49:33;101970.81;;;16.75;100.00
59787;BME280;45672;51.612;5.536;2022-10-17T13:52:02;101979.38;;;16.78;100.00
59787;BME280;45672;51.612;5.536;2022-10-17T13:54:37;101984.56;;;16.80;100.00
59787;BME280;45672;51.612;5.536;2022-10-17T13:57:05;101988.13;;;16.80;100.00
59787;BME280;45672;51.612;5.536;2022-10-17T13:59:40;101992.97;;;16.77;100.00
59787;BME280;45672;51.612;5.536;2022-10-17T14:02:15;101999.03;;;16.79;100.00
59787;BME280;45672;51.612;5.536;2022-10-17T14:04:41;102001.72;;;16.79;100.00
59787;BME280;45672;51.612;5.536;2022-10-17T14:07:20;102013.47;;;16.78;100.00
59787;BME280;45672;51.612;5.536;2022-10-17T14:09:48;102008.94;;;16.78;100.00